sensor_id;sensor_type;location;lat;lon;timestamp;temperature;humidity
33994;DHT22;20673;48.980;8.138;2022-11-14T00:01:12;7.30;99.90
33994;DHT22;20673;48.980;8.138;2022-11-14T00:03:38;7.30;99.90
33994;DHT22;20673;48.980;8.138;2022-11-14T00:06:04;7.30;99.90
33994;DHT22;20673;48.980;8.138;2022-11-14T00:08:31;7.30;99.90
33994;DHT22;20673;48.980;8.138;2022-11-14T00:10:57;7.30;99.90
33994;DHT22;20673;48.980;8.138;2022-11-14T00:13:24;7.40;99.90
33994;DHT22;20673;48.980;8.138;2022-11-14T00:15:50;7.40;99.90
33994;DHT22;20673;48.980;8.138;2022-11-14T00:18:18;7.30;99.90
33994;DHT22;20673;48.980;8.138;2022-11-14T00:20:48;7.30;99.90
33994;DHT22;20673;48.980;8.138;2022-11-14T00:23:15;7.30;99.90
33994;DHT22;20673;48.980;8.138;2022-11-14T00:25:42;7.30;99.90
33994;DHT22;20673;48.980;8.138;2022-11-14T00:28:09;7.30;99.90
33994;DHT22;20673;48.980;8.138;2022-11-14T00:30:35;7.30;99.90
33994;DHT22;20673;48.980;8.138;2022-11-14T00:33:02;7.30;99.90
33994;DHT22;20673;48.980;8.138;2022-11-14T00:35:28;7.30;99.90
33994;DHT22;20673;48.980;8.138;2022-11-14T00:37:54;7.30;99.90
33994;DHT22;20673;48.980;8.138;2022-11-14T00:40:20;7.30;99.90
33994;DHT22;20673;48.980;8.138;2022-11-14T00:42:45;7.20;99.90
33994;DHT22;20673;48.980;8.138;2022-11-14T00:45:12;7.30;99.90
33994;DHT22;20673;48.980;8.138;2022-11-14T00:47:38;7.20;99.90
33994;DHT22;20673;48.980;8.138;2022-11-14T00:50:04;7.20;99.90
33994;DHT22;20673;48.980;8.138;2022-11-14T00:52:31;7.20;99.90
33994;DHT22;20673;48.980;8.138;2022-11-14T00:54:57;7.20;99.90
33994;DHT22;20673;48.980;8.138;2022-11-14T00:57:23;7.20;99.90
33994;DHT22;20673;48.980;8.138;2022-11-14T00:59:49;7.20;99.90
33994;DHT22;20673;48.980;8.138;2022-11-14T01:02:15;7.20;99.90
33994;DHT22;20673;48.980;8.138;2022-11-14T01:04:41;7.20;99.90
33994;DHT22;20673;48.980;8.138;2022-11-14T01:07:07;7.30;99.90
33994;DHT22;20673;48.980;8.138;2022-11-14T01:09:33;7.20;99.90
33994;DHT22;20673;48.980;8.138;2022-11-14T01:11:58;7.20;99.90
33994;DHT22;20673;48.980;8.138;2022-11-14T01:14:24;7.20;99.90
33994;DHT22;20673;48.980;8.138;2022-11-14T01:16:50;7.30;99.90
33994;DHT22;20673;48.980;8.138;2022-11-14T01:19:16;7.30;99.90
33994;DHT22;20673;48.980;8.138;2022-11-14T01:21:42;7.20;99.90
33994;DHT22;20673;48.980;8.138;2022-11-14T01:24:08;7.20;99.90
33994;DHT22;20673;48.980;8.138;2022-11-14T01:26:34;7.20;99.90
33994;DHT22;20673;48.980;8.138;2022-11-14T01:29:00;7.20;99.90
33994;DHT22;20673;48.980;8.138;2022-11-14T01:31:26;7.20;99.90
33994;DHT22;20673;48.980;8.138;2022-11-14T01:33:52;7.20;99.90
33994;DHT22;20673;48.980;8.138;2022-11-14T01:36:19;7.20;99.90
33994;DHT22;20673;48.980;8.138;2022-11-14T01:38:45;7.20;99.90
33994;DHT22;20673;48.980;8.138;2022-11-14T01:41:14;7.20;99.90
33994;DHT22;20673;48.980;8.138;2022-11-14T01:43:41;7.10;99.90
33994;DHT22;20673;48.980;8.138;2022-11-14T01:46:15;7.10;99.90
33994;DHT22;20673;48.980;8.138;2022-11-14T01:48:56;7.10;99.90
33994;DHT22;20673;48.980;8.138;2022-11-14T01:51:27;7.10;99.90
33994;DHT22;20673;48.980;8.138;2022-11-14T01:53:55;7.10;99.90
33994;DHT22;20673;48.980;8.138;2022-11-14T01:56:28;7.10;99.90
33994;DHT22;20673;48.980;8.138;2022-11-14T01:59:05;7.10;99.90
33994;DHT22;20673;48.980;8.138;2022-11-14T02:01:30;7.10;99.90
33994;DHT22;20673;48.980;8.138;2022-11-14T02:03:58;7.10;99.90
33994;DHT22;20673;48.980;8.138;2022-11-14T02:06:26;7.10;99.90
33994;DHT22;20673;48.980;8.138;2022-11-14T02:08:55;7.10;99.90
33994;DHT22;20673;48.980;8.138;2022-11-14T02:11:22;7.10;99.90
33994;DHT22;20673;48.980;8.138;2022-11-14T02:13:54;7.10;99.90
33994;DHT22;20673;48.980;8.138;2022-11-14T02:16:20;7.00;99.90
33994;DHT22;20673;48.980;8.138;2022-11-14T02:18:46;7.00;99.90
33994;DHT22;20673;48.980;8.138;2022-11-14T02:21:12;7.00;99.90
33994;DHT22;20673;48.980;8.138;2022-11-14T02:23:38;7.00;99.90
33994;DHT22;20673;48.980;8.138;2022-11-14T02:26:04;7.00;99.90
33994;DHT22;20673;48.980;8.138;2022-11-14T02:28:30;7.00;99.90
33994;DHT22;20673;48.980;8.138;2022-11-14T02:30:56;7.00;99.90
33994;DHT22;20673;48.980;8.138;2022-11-14T02:33:22;7.00;99.90
33994;DHT22;20673;48.980;8.138;2022-11-14T02:35:48;7.00;99.90
33994;DHT22;20673;48.980;8.138;2022-11-14T02:38:14;7.00;99.90
33994;DHT22;20673;48.980;8.138;2022-11-14T02:40:40;7.00;99.90
33994;DHT22;20673;48.980;8.138;2022-11-14T02:43:06;7.00;99.90
33994;DHT22;20673;48.980;8.138;2022-11-14T02:45:32;7.00;99.90
33994;DHT22;20673;48.980;8.138;2022-11-14T02:47:58;7.00;99.90
33994;DHT22;20673;48.980;8.138;2022-11-14T02:50:24;7.00;99.90
33994;DHT22;20673;48.980;8.138;2022-11-14T02:52:50;7.00;99.90
33994;DHT22;20673;48.980;8.138;2022-11-14T02:55:18;7.00;99.90
33994;DHT22;20673;48.980;8.138;2022-11-14T02:57:45;7.00;99.90
33994;DHT22;20673;48.980;8.138;2022-11-14T03:00:11;7.00;99.90
33994;DHT22;20673;48.980;8.138;2022-11-14T03:02:38;7.00;99.90
33994;DHT22;20673;48.980;8.138;2022-11-14T03:05:04;6.90;99.90
33994;DHT22;20673;48.980;8.138;2022-11-14T03:07:30;6.90;99.90
33994;DHT22;20673;48.980;8.138;2022-11-14T03:09:56;6.90;99.90
33994;DHT22;20673;48.980;8.138;2022-11-14T03:12:22;6.90;99.90
33994;DHT22;20673;48.980;8.138;2022-11-14T03:14:48;6.90;99.90
33994;DHT22;20673;48.980;8.138;2022-11-14T03:17:14;6.90;99.90
33994;DHT22;20673;48.980;8.138;2022-11-14T03:19:40;6.80;99.90
33994;DHT22;20673;48.980;8.138;2022-11-14T03:22:06;6.80;99.90
33994;DHT22;20673;48.980;8.138;2022-11-14T03:24:31;6.80;99.90
33994;DHT22;20673;48.980;8.138;2022-11-14T03:26:58;6.80;99.90
33994;DHT22;20673;48.980;8.138;2022-11-14T03:29:24;6.80;99.90
33994;DHT22;20673;48.980;8.138;2022-11-14T03:31:50;6.80;99.90
33994;DHT22;20673;48.980;8.138;2022-11-14T03:34:16;6.80;99.90
33994;DHT22;20673;48.980;8.138;2022-11-14T03:36:42;6.80;99.90
33994;DHT22;20673;48.980;8.138;2022-11-14T03:39:08;6.70;99.90
33994;DHT22;20673;48.980;8.138;2022-11-14T03:41:34;6.70;99.90
33994;DHT22;20673;48.980;8.138;2022-11-14T03:44:00;6.70;99.90
33994;DHT22;20673;48.980;8.138;2022-11-14T03:46:26;6.70;99.90
33994;DHT22;20673;48.980;8.138;2022-11-14T03:48:52;6.70;99.90
33994;DHT22;20673;48.980;8.138;2022-11-14T03:51:18;6.60;99.90
33994;DHT22;20673;48.980;8.138;2022-11-14T03:53:43;6.60;99.90
33994;DHT22;20673;48.980;8.138;2022-11-14T03:56:09;6.60;99.90
33994;DHT22;20673;48.980;8.138;2022-11-14T03:58:35;6.60;99.90
33994;DHT22;20673;48.980;8.138;2022-11-14T04:01:02;6.60;99.90
33994;DHT22;20673;48.980;8.138;2022-11-14T04:03:28;6.60;99.90
33994;DHT22;20673;48.980;8.138;2022-11-14T04:05:54;6.60;99.90
33994;DHT22;20673;48.980;8.138;2022-11-14T04:08:20;6.60;99.90
33994;DHT22;20673;48.980;8.138;2022-11-14T04:10:46;6.60;99.90
33994;DHT22;20673;48.980;8.138;2022-11-14T04:13:13;6.50;99.90
33994;DHT22;20673;48.980;8.138;2022-11-14T04:15:39;6.60;99.90
33994;DHT22;20673;48.980;8.138;2022-11-14T04:18:05;6.50;99.90
33994;DHT22;20673;48.980;8.138;2022-11-14T04:20:31;6.50;99.90
33994;DHT22;20673;48.980;8.138;2022-11-14T04:22:57;6.50;99.90
33994;DHT22;20673;48.980;8.138;2022-11-14T04:25:23;6.50;99.90
33994;DHT22;20673;48.980;8.138;2022-11-14T04:27:49;6.50;99.90
33994;DHT22;20673;48.980;8.138;2022-11-14T04:30:15;6.50;99.90
33994;DHT22;20673;48.980;8.138;2022-11-14T04:32:41;6.40;99.90
33994;DHT22;20673;48.980;8.138;2022-11-14T04:35:13;6.40;99.90
33994;DHT22;20673;48.980;8.138;2022-11-14T04:37:40;6.50;99.90
33994;DHT22;20673;48.980;8.138;2022-11-14T04:40:06;6.40;99.90
33994;DHT22;20673;48.980;8.138;2022-11-14T04:42:33;6.50;99.90
33994;DHT22;20673;48.980;8.138;2022-11-14T04:44:59;6.50;99.90
33994;DHT22;20673;48.980;8.138;2022-11-14T04:47:24;6.40;99.90
33994;DHT22;20673;48.980;8.138;2022-11-14T04:49:50;6.50;99.90
33994;DHT22;20673;48.980;8.138;2022-11-14T04:52:16;6.50;99.90
33994;DHT22;20673;48.980;8.138;2022-11-14T04:54:42;6.50;99.90
33994;DHT22;20673;48.980;8.138;2022-11-14T04:57:08;6.50;99.90
33994;DHT22;20673;48.980;8.138;2022-11-14T04:59:34;6.50;99.90
33994;DHT22;20673;48.980;8.138;2022-11-14T05:02:00;6.40;99.90
33994;DHT22;20673;48.980;8.138;2022-11-14T05:04:26;6.40;99.90
33994;DHT22;20673;48.980;8.138;2022-11-14T05:06:52;6.40;99.90
33994;DHT22;20673;48.980;8.138;2022-11-14T05:09:18;6.40;99.90
33994;DHT22;20673;48.980;8.138;2022-11-14T05:11:44;6.30;99.90
33994;DHT22;20673;48.980;8.138;2022-11-14T05:14:10;6.40;99.90
33994;DHT22;20673;48.980;8.138;2022-11-14T05:16:36;6.40;99.90
33994;DHT22;20673;48.980;8.138;2022-11-14T05:19:01;6.30;99.90
33994;DHT22;20673;48.980;8.138;2022-11-14T05:21:27;6.40;99.90
33994;DHT22;20673;48.980;8.138;2022-11-14T05:23:53;6.30;99.90
33994;DHT22;20673;48.980;8.138;2022-11-14T05:26:19;6.30;99.90
33994;DHT22;20673;48.980;8.138;2022-11-14T05:28:45;6.30;99.90
33994;DHT22;20673;48.980;8.138;2022-11-14T05:31:12;6.30;99.90
33994;DHT22;20673;48.980;8.138;2022-11-14T05:33:41;6.30;99.90
33994;DHT22;20673;48.980;8.138;2022-11-14T05:36:08;6.30;99.90
33994;DHT22;20673;48.980;8.138;2022-11-14T05:38:36;6.30;99.90
33994;DHT22;20673;48.980;8.138;2022-11-14T05:41:06;6.20;99.90
33994;DHT22;20673;48.980;8.138;2022-11-14T05:43:34;6.20;99.90
33994;DHT22;20673;48.980;8.138;2022-11-14T05:46:01;6.20;99.90
33994;DHT22;20673;48.980;8.138;2022-11-14T05:48:29;6.20;99.90
33994;DHT22;20673;48.980;8.138;2022-11-14T05:50:56;6.20;99.90
33994;DHT22;20673;48.980;8.138;2022-11-14T05:53:23;6.20;99.90
33994;DHT22;20673;48.980;8.138;2022-11-14T05:55:50;6.10;99.90
33994;DHT22;20673;48.980;8.138;2022-11-14T05:58:15;6.10;99.90
33994;DHT22;20673;48.980;8.138;2022-11-14T06:00:42;6.10;99.90
33994;DHT22;20673;48.980;8.138;2022-11-14T06:03:08;6.10;99.90
33994;DHT22;20673;48.980;8.138;2022-11-14T06:05:34;6.10;99.90
33994;DHT22;20673;48.980;8.138;2022-11-14T06:08:01;6.10;99.90
33994;DHT22;20673;48.980;8.138;2022-11-14T06:10:28;6.00;99.90
33994;DHT22;20673;48.980;8.138;2022-11-14T06:12:54;6.10;99.90
33994;DHT22;20673;48.980;8.138;2022-11-14T06:15:20;6.00;99.90
33994;DHT22;20673;48.980;8.138;2022-11-14T06:17:46;6.00;99.90
33994;DHT22;20673;48.980;8.138;2022-11-14T06:20:12;6.00;99.90
33994;DHT22;20673;48.980;8.138;2022-11-14T06:22:40;6.10;99.90
33994;DHT22;20673;48.980;8.138;2022-11-14T06:25:07;6.10;99.90
33994;DHT22;20673;48.980;8.138;2022-11-14T06:27:33;6.00;99.90
33994;DHT22;20673;48.980;8.138;2022-11-14T06:29:59;6.00;99.90
33994;DHT22;20673;48.980;8.138;2022-11-14T06:32:25;6.00;99.90
33994;DHT22;20673;48.980;8.138;2022-11-14T06:34:51;6.00;99.90
33994;DHT22;20673;48.980;8.138;2022-11-14T06:37:17;6.00;99.90
33994;DHT22;20673;48.980;8.138;2022-11-14T06:39:42;6.00;99.90
33994;DHT22;20673;48.980;8.138;2022-11-14T06:42:08;6.00;99.90
33994;DHT22;20673;48.980;8.138;2022-11-14T06:44:34;6.00;99.90
33994;DHT22;20673;48.980;8.138;2022-11-14T06:47:01;6.00;99.90
33994;DHT22;20673;48.980;8.138;2022-11-14T06:49:26;6.00;99.90
33994;DHT22;20673;48.980;8.138;2022-11-14T06:51:52;5.90;99.90
33994;DHT22;20673;48.980;8.138;2022-11-14T06:54:19;5.90;99.90
33994;DHT22;20673;48.980;8.138;2022-11-14T06:56:45;5.90;99.90
33994;DHT22;20673;48.980;8.138;2022-11-14T06:59:11;5.90;99.90
33994;DHT22;20673;48.980;8.138;2022-11-14T07:01:37;5.90;99.90
33994;DHT22;20673;48.980;8.138;2022-11-14T07:04:03;5.90;99.90
33994;DHT22;20673;48.980;8.138;2022-11-14T07:06:29;5.90;99.90
33994;DHT22;20673;48.980;8.138;2022-11-14T07:08:56;5.90;99.90
33994;DHT22;20673;48.980;8.138;2022-11-14T07:11:23;6.00;99.90
33994;DHT22;20673;48.980;8.138;2022-11-14T07:13:54;5.90;99.90
33994;DHT22;20673;48.980;8.138;2022-11-14T07:16:23;5.90;99.90
33994;DHT22;20673;48.980;8.138;2022-11-14T07:18:53;5.90;99.90
33994;DHT22;20673;48.980;8.138;2022-11-14T07:21:19;5.90;99.90
33994;DHT22;20673;48.980;8.138;2022-11-14T07:23:45;5.90;99.90
33994;DHT22;20673;48.980;8.138;2022-11-14T07:26:11;5.90;99.90
33994;DHT22;20673;48.980;8.138;2022-11-14T07:28:38;5.90;99.90
33994;DHT22;20673;48.980;8.138;2022-11-14T07:31:06;5.90;99.90
33994;DHT22;20673;48.980;8.138;2022-11-14T07:33:33;5.90;99.90
33994;DHT22;20673;48.980;8.138;2022-11-14T07:36:00;5.90;99.90
33994;DHT22;20673;48.980;8.138;2022-11-14T07:38:26;5.90;99.90
33994;DHT22;20673;48.980;8.138;2022-11-14T07:40:56;5.90;99.90
33994;DHT22;20673;48.980;8.138;2022-11-14T07:43:23;5.90;99.90
33994;DHT22;20673;48.980;8.138;2022-11-14T07:45:50;5.90;99.90
33994;DHT22;20673;48.980;8.138;2022-11-14T07:48:16;5.90;99.90
33994;DHT22;20673;48.980;8.138;2022-11-14T07:50:43;5.90;99.90
33994;DHT22;20673;48.980;8.138;2022-11-14T07:53:09;5.80;99.90
33994;DHT22;20673;48.980;8.138;2022-11-14T07:55:35;5.90;99.90
33994;DHT22;20673;48.980;8.138;2022-11-14T07:58:02;5.90;99.90
33994;DHT22;20673;48.980;8.138;2022-11-14T08:00:28;5.90;99.90
33994;DHT22;20673;48.980;8.138;2022-11-14T08:02:54;5.90;99.90
33994;DHT22;20673;48.980;8.138;2022-11-14T08:05:20;6.00;99.90
33994;DHT22;20673;48.980;8.138;2022-11-14T08:07:49;6.00;99.90
33994;DHT22;20673;48.980;8.138;2022-11-14T08:10:17;6.10;99.90
33994;DHT22;20673;48.980;8.138;2022-11-14T08:12:44;6.10;99.90
33994;DHT22;20673;48.980;8.138;2022-11-14T08:15:11;6.10;99.90
33994;DHT22;20673;48.980;8.138;2022-11-14T08:17:38;6.10;99.90
33994;DHT22;20673;48.980;8.138;2022-11-14T08:20:04;6.10;99.90
33994;DHT22;20673;48.980;8.138;2022-11-14T08:22:32;6.10;99.90
33994;DHT22;20673;48.980;8.138;2022-11-14T08:24:58;6.10;99.90
33994;DHT22;20673;48.980;8.138;2022-11-14T08:27:24;6.10;99.90
33994;DHT22;20673;48.980;8.138;2022-11-14T08:29:50;6.20;99.90
33994;DHT22;20673;48.980;8.138;2022-11-14T08:32:17;6.20;99.90
33994;DHT22;20673;48.980;8.138;2022-11-14T08:34:43;6.20;99.90
33994;DHT22;20673;48.980;8.138;2022-11-14T08:37:09;6.20;99.90
33994;DHT22;20673;48.980;8.138;2022-11-14T08:39:35;6.20;99.90
33994;DHT22;20673;48.980;8.138;2022-11-14T08:42:01;6.20;99.90
33994;DHT22;20673;48.980;8.138;2022-11-14T08:44:28;6.20;99.90
33994;DHT22;20673;48.980;8.138;2022-11-14T08:46:54;6.30;99.90
33994;DHT22;20673;48.980;8.138;2022-11-14T08:49:20;6.30;99.90
33994;DHT22;20673;48.980;8.138;2022-11-14T08:51:46;6.30;99.90
33994;DHT22;20673;48.980;8.138;2022-11-14T08:54:12;6.40;99.90
33994;DHT22;20673;48.980;8.138;2022-11-14T08:56:38;6.50;99.90
33994;DHT22;20673;48.980;8.138;2022-11-14T08:59:04;6.60;99.90
33994;DHT22;20673;48.980;8.138;2022-11-14T09:01:30;6.70;99.90
33994;DHT22;20673;48.980;8.138;2022-11-14T09:03:57;6.80;99.90
33994;DHT22;20673;48.980;8.138;2022-11-14T09:06:24;6.80;99.90
33994;DHT22;20673;48.980;8.138;2022-11-14T09:08:50;6.80;99.90
33994;DHT22;20673;48.980;8.138;2022-11-14T09:11:16;6.80;99.90
33994;DHT22;20673;48.980;8.138;2022-11-14T09:13:42;6.80;99.90
33994;DHT22;20673;48.980;8.138;2022-11-14T09:16:08;6.90;99.90
33994;DHT22;20673;48.980;8.138;2022-11-14T09:18:34;6.90;99.90
33994;DHT22;20673;48.980;8.138;2022-11-14T09:21:02;6.90;99.90
33994;DHT22;20673;48.980;8.138;2022-11-14T09:23:30;6.90;99.90
33994;DHT22;20673;48.980;8.138;2022-11-14T09:25:56;6.90;99.90
33994;DHT22;20673;48.980;8.138;2022-11-14T09:28:22;6.80;99.90
33994;DHT22;20673;48.980;8.138;2022-11-14T09:30:48;6.80;99.90
33994;DHT22;20673;48.980;8.138;2022-11-14T09:33:14;6.80;99.90
33994;DHT22;20673;48.980;8.138;2022-11-14T09:35:41;6.80;99.90
33994;DHT22;20673;48.980;8.138;2022-11-14T09:38:08;6.90;99.90
33994;DHT22;20673;48.980;8.138;2022-11-14T09:40:46;6.90;99.90
33994;DHT22;20673;48.980;8.138;2022-11-14T09:46:22;6.90;99.90
33994;DHT22;20673;48.980;8.138;2022-11-14T09:48:47;6.90;99.90
33994;DHT22;20673;48.980;8.138;2022-11-14T09:51:15;6.90;99.90
33994;DHT22;20673;48.980;8.138;2022-11-14T09:56:32;6.90;99.90
33994;DHT22;20673;48.980;8.138;2022-11-14T09:58:58;6.90;99.90
33994;DHT22;20673;48.980;8.138;2022-11-14T10:01:35;6.90;99.90
33994;DHT22;20673;48.980;8.138;2022-11-14T10:11:58;7.00;99.90
33994;DHT22;20673;48.980;8.138;2022-11-14T10:17:12;6.90;99.90
33994;DHT22;20673;48.980;8.138;2022-11-14T10:19:39;7.00;99.90
33994;DHT22;20673;48.980;8.138;2022-11-14T10:27:57;7.00;99.90
33994;DHT22;20673;48.980;8.138;2022-11-14T10:30:34;7.10;99.90
33994;DHT22;20673;48.980;8.138;2022-11-14T10:35:42;7.20;99.90
33994;DHT22;20673;48.980;8.138;2022-11-14T10:41:00;7.20;99.90
33994;DHT22;20673;48.980;8.138;2022-11-14T10:43:31;7.20;99.90
33994;DHT22;20673;48.980;8.138;2022-11-14T10:46:03;7.30;99.90
33994;DHT22;20673;48.980;8.138;2022-11-14T10:48:32;7.30;99.90
33994;DHT22;20673;48.980;8.138;2022-11-14T10:56:21;7.20;99.90
33994;DHT22;20673;48.980;8.138;2022-11-14T10:58:47;7.30;99.90
33994;DHT22;20673;48.980;8.138;2022-11-14T11:02:13;7.20;99.90
33994;DHT22;20673;48.980;8.138;2022-11-14T11:04:16;7.20;99.90
33994;DHT22;20673;48.980;8.138;2022-11-14T11:06:49;7.20;99.90
33994;DHT22;20673;48.980;8.138;2022-11-14T11:09:18;7.30;99.90
33994;DHT22;20673;48.980;8.138;2022-11-14T11:12:06;7.30;99.90
33994;DHT22;20673;48.980;8.138;2022-11-14T11:14:33;7.30;99.90
33994;DHT22;20673;48.980;8.138;2022-11-14T11:17:07;7.40;99.90
33994;DHT22;20673;48.980;8.138;2022-11-14T11:19:40;7.50;99.90
33994;DHT22;20673;48.980;8.138;2022-11-14T11:24:54;7.80;99.90
33994;DHT22;20673;48.980;8.138;2022-11-14T11:27:22;8.00;99.90
33994;DHT22;20673;48.980;8.138;2022-11-14T11:32:43;8.00;99.90
33994;DHT22;20673;48.980;8.138;2022-11-14T11:35:14;8.20;99.90
33994;DHT22;20673;48.980;8.138;2022-11-14T11:37:40;8.30;99.90
33994;DHT22;20673;48.980;8.138;2022-11-14T11:40:13;8.30;99.90
33994;DHT22;20673;48.980;8.138;2022-11-14T11:43:03;8.40;99.90
33994;DHT22;20673;48.980;8.138;2022-11-14T11:45:31;8.60;99.90
33994;DHT22;20673;48.980;8.138;2022-11-14T11:48:15;8.60;99.90
33994;DHT22;20673;48.980;8.138;2022-11-14T11:50:43;8.50;99.90
33994;DHT22;20673;48.980;8.138;2022-11-14T11:53:16;8.40;99.90
33994;DHT22;20673;48.980;8.138;2022-11-14T11:55:57;8.50;99.90
33994;DHT22;20673;48.980;8.138;2022-11-14T12:00:56;8.70;99.90
33994;DHT22;20673;48.980;8.138;2022-11-14T12:03:23;8.70;99.90
33994;DHT22;20673;48.980;8.138;2022-11-14T12:10:59;8.90;99.90
33994;DHT22;20673;48.980;8.138;2022-11-14T12:25:15;9.90;99.90
33994;DHT22;20673;48.980;8.138;2022-11-14T12:28:33;10.10;99.90
33994;DHT22;20673;48.980;8.138;2022-11-14T12:30:28;10.40;99.90
33994;DHT22;20673;48.980;8.138;2022-11-14T12:32:58;10.80;99.90
33994;DHT22;20673;48.980;8.138;2022-11-14T12:35:31;10.90;99.90
33994;DHT22;20673;48.980;8.138;2022-11-14T12:37:59;10.70;99.90
33994;DHT22;20673;48.980;8.138;2022-11-14T12:40:33;10.40;99.90
33994;DHT22;20673;48.980;8.138;2022-11-14T12:43:02;10.20;99.90
33994;DHT22;20673;48.980;8.138;2022-11-14T12:50:55;10.10;99.90
33994;DHT22;20673;48.980;8.138;2022-11-14T13:12:31;9.60;99.90
33994;DHT22;20673;48.980;8.138;2022-11-14T13:15:27;9.60;99.90
33994;DHT22;20673;48.980;8.138;2022-11-14T13:18:25;9.60;99.90
33994;DHT22;20673;48.980;8.138;2022-11-14T13:21:26;9.50;99.90
33994;DHT22;20673;48.980;8.138;2022-11-14T13:24:12;9.40;99.90
33994;DHT22;20673;48.980;8.138;2022-11-14T13:26:48;9.30;99.90
33994;DHT22;20673;48.980;8.138;2022-11-14T13:32:02;9.30;99.90
33994;DHT22;20673;48.980;8.138;2022-11-14T13:34:35;9.30;99.90
33994;DHT22;20673;48.980;8.138;2022-11-14T13:40:51;9.30;99.90
33994;DHT22;20673;48.980;8.138;2022-11-14T13:50:46;9.40;99.90
33994;DHT22;20673;48.980;8.138;2022-11-14T13:53:16;9.30;99.90
33994;DHT22;20673;48.980;8.138;2022-11-14T14:04:11;9.50;99.90
33994;DHT22;20673;48.980;8.138;2022-11-14T14:07:06;9.50;99.90
33994;DHT22;20673;48.980;8.138;2022-11-14T14:28:59;9.80;99.90
33994;DHT22;20673;48.980;8.138;2022-11-14T14:31:37;9.70;99.90
33994;DHT22;20673;48.980;8.138;2022-11-14T14:34:21;9.60;99.90
33994;DHT22;20673;48.980;8.138;2022-11-14T14:36:51;9.50;99.90
33994;DHT22;20673;48.980;8.138;2022-11-14T14:39:22;9.40;99.90
33994;DHT22;20673;48.980;8.138;2022-11-14T14:41:50;9.40;99.90
33994;DHT22;20673;48.980;8.138;2022-11-14T14:44:38;9.50;99.90
33994;DHT22;20673;48.980;8.138;2022-11-14T14:46:52;9.60;99.90
33994;DHT22;20673;48.980;8.138;2022-11-14T14:49:24;9.60;99.90
33994;DHT22;20673;48.980;8.138;2022-11-14T14:51:49;9.60;99.90
33994;DHT22;20673;48.980;8.138;2022-11-14T14:54:18;9.70;99.90
33994;DHT22;20673;48.980;8.138;2022-11-14T14:56:52;9.80;99.90
33994;DHT22;20673;48.980;8.138;2022-11-14T14:59:28;9.70;99.90
33994;DHT22;20673;48.980;8.138;2022-11-14T15:01:55;9.70;99.90
33994;DHT22;20673;48.980;8.138;2022-11-14T15:04:24;9.80;99.90
33994;DHT22;20673;48.980;8.138;2022-11-14T15:06:52;9.90;99.90
33994;DHT22;20673;48.980;8.138;2022-11-14T15:09:24;9.80;99.90
33994;DHT22;20673;48.980;8.138;2022-11-14T15:11:53;9.80;99.90
33994;DHT22;20673;48.980;8.138;2022-11-14T15:14:25;9.80;99.90
33994;DHT22;20673;48.980;8.138;2022-11-14T15:16:54;9.60;99.90
33994;DHT22;20673;48.980;8.138;2022-11-14T15:19:22;9.50;99.90
33994;DHT22;20673;48.980;8.138;2022-11-14T15:22:00;9.50;99.90
33994;DHT22;20673;48.980;8.138;2022-11-14T15:24:31;9.40;99.90
33994;DHT22;20673;48.980;8.138;2022-11-14T15:26:57;9.10;99.90
33994;DHT22;20673;48.980;8.138;2022-11-14T15:29:26;9.00;99.90
33994;DHT22;20673;48.980;8.138;2022-11-14T15:31:56;8.80;99.90
33994;DHT22;20673;48.980;8.138;2022-11-14T15:34:32;8.70;99.90
33994;DHT22;20673;48.980;8.138;2022-11-14T15:39:41;8.40;99.90
33994;DHT22;20673;48.980;8.138;2022-11-14T15:44:41;8.20;99.90
33994;DHT22;20673;48.980;8.138;2022-11-14T15:47:09;8.10;99.90
33994;DHT22;20673;48.980;8.138;2022-11-14T15:49:38;8.00;99.90
33994;DHT22;20673;48.980;8.138;2022-11-14T15:52:04;7.90;99.90
33994;DHT22;20673;48.980;8.138;2022-11-14T15:54:33;7.80;99.90
33994;DHT22;20673;48.980;8.138;2022-11-14T15:57:00;7.80;99.90
33994;DHT22;20673;48.980;8.138;2022-11-14T15:59:29;7.80;99.90
33994;DHT22;20673;48.980;8.138;2022-11-14T16:01:56;7.70;99.90
33994;DHT22;20673;48.980;8.138;2022-11-14T16:04:27;7.60;99.90
33994;DHT22;20673;48.980;8.138;2022-11-14T16:06:55;7.60;99.90
33994;DHT22;20673;48.980;8.138;2022-11-14T16:09:21;7.50;99.90
33994;DHT22;20673;48.980;8.138;2022-11-14T16:11:47;7.40;99.90
33994;DHT22;20673;48.980;8.138;2022-11-14T16:14:13;7.40;99.90
33994;DHT22;20673;48.980;8.138;2022-11-14T16:16:39;7.30;99.90
33994;DHT22;20673;48.980;8.138;2022-11-14T16:19:05;7.20;99.90
33994;DHT22;20673;48.980;8.138;2022-11-14T16:21:31;7.20;99.90
33994;DHT22;20673;48.980;8.138;2022-11-14T16:23:58;7.10;99.90
33994;DHT22;20673;48.980;8.138;2022-11-14T16:26:24;7.10;99.90
33994;DHT22;20673;48.980;8.138;2022-11-14T16:28:53;7.00;99.90
33994;DHT22;20673;48.980;8.138;2022-11-14T16:31:21;7.00;99.90
33994;DHT22;20673;48.980;8.138;2022-11-14T16:33:48;7.00;99.90
33994;DHT22;20673;48.980;8.138;2022-11-14T16:36:14;7.00;99.90
33994;DHT22;20673;48.980;8.138;2022-11-14T16:38:40;6.90;99.90
33994;DHT22;20673;48.980;8.138;2022-11-14T16:41:07;6.90;99.90
33994;DHT22;20673;48.980;8.138;2022-11-14T16:43:34;6.80;99.90
33994;DHT22;20673;48.980;8.138;2022-11-14T16:46:06;6.80;99.90
33994;DHT22;20673;48.980;8.138;2022-11-14T16:48:32;6.80;99.90
33994;DHT22;20673;48.980;8.138;2022-11-14T16:50:59;6.90;99.90
33994;DHT22;20673;48.980;8.138;2022-11-14T16:53:26;6.80;99.90
33994;DHT22;20673;48.980;8.138;2022-11-14T16:55:53;6.80;99.90
33994;DHT22;20673;48.980;8.138;2022-11-14T16:58:19;6.70;99.90
33994;DHT22;20673;48.980;8.138;2022-11-14T17:00:45;6.70;99.90
33994;DHT22;20673;48.980;8.138;2022-11-14T17:03:11;6.70;99.90
33994;DHT22;20673;48.980;8.138;2022-11-14T17:05:45;6.70;99.90
33994;DHT22;20673;48.980;8.138;2022-11-14T17:08:08;6.80;99.90
33994;DHT22;20673;48.980;8.138;2022-11-14T17:10:38;6.80;99.90
33994;DHT22;20673;48.980;8.138;2022-11-14T17:13:09;6.80;99.90
33994;DHT22;20673;48.980;8.138;2022-11-14T17:15:35;6.80;99.90
33994;DHT22;20673;48.980;8.138;2022-11-14T17:18:01;6.80;99.90
33994;DHT22;20673;48.980;8.138;2022-11-14T17:20:30;6.90;99.90
33994;DHT22;20673;48.980;8.138;2022-11-14T17:22:56;6.90;99.90
33994;DHT22;20673;48.980;8.138;2022-11-14T17:25:22;6.90;99.90
33994;DHT22;20673;48.980;8.138;2022-11-14T17:27:48;6.90;99.90
33994;DHT22;20673;48.980;8.138;2022-11-14T17:30:15;7.00;99.90
33994;DHT22;20673;48.980;8.138;2022-11-14T17:32:42;7.00;99.90
33994;DHT22;20673;48.980;8.138;2022-11-14T17:35:08;7.10;99.90
33994;DHT22;20673;48.980;8.138;2022-11-14T17:37:35;7.10;99.90
33994;DHT22;20673;48.980;8.138;2022-11-14T17:40:01;7.10;99.90
33994;DHT22;20673;48.980;8.138;2022-11-14T17:42:28;7.10;99.90
33994;DHT22;20673;48.980;8.138;2022-11-14T17:44:54;7.20;99.90
33994;DHT22;20673;48.980;8.138;2022-11-14T17:47:20;7.20;99.90
33994;DHT22;20673;48.980;8.138;2022-11-14T17:49:46;7.30;99.90
33994;DHT22;20673;48.980;8.138;2022-11-14T17:52:12;7.30;99.90
33994;DHT22;20673;48.980;8.138;2022-11-14T17:54:37;7.30;99.90
33994;DHT22;20673;48.980;8.138;2022-11-14T17:57:03;7.30;99.90
33994;DHT22;20673;48.980;8.138;2022-11-14T17:59:30;7.30;99.90